createdAt,value
2018-02-20T09:27:21.000Z,45.60
2018-02-20T09:29:48.588Z,26.60
2018-02-20T09:32:16.156Z,36.10
2018-02-20T09:34:43.781Z,44.30
2018-02-20T09:37:11.330Z,51.30
2018-02-20T09:39:39.747Z,59.50
2018-02-20T09:42:07.316Z,59.40
2018-02-20T09:44:34.855Z,62.10
2018-02-20T09:47:02.427Z,63.00
2018-02-20T09:49:30.016Z,64.40
2018-02-20T09:51:57.555Z,65.20
2018-02-20T09:54:25.209Z,66.70
2018-02-20T09:56:53.399Z,67.80
2018-02-20T09:59:20.941Z,68.10
2018-02-20T10:01:48.510Z,67.70
2018-02-20T10:04:16.049Z,67.60
2018-02-20T10:06:43.582Z,67.60
2018-02-20T10:09:11.149Z,66.60
2018-02-20T10:11:40.152Z,67.70
2018-02-20T10:14:07.687Z,67.70
2018-02-20T10:16:35.263Z,67.50
2018-02-20T10:19:03.948Z,67.60
2018-02-20T10:21:32.572Z,67.80
2018-02-20T10:24:00.125Z,67.80
2018-02-20T10:26:27.699Z,68.40
2018-02-20T10:28:55.253Z,69.40
2018-02-20T10:31:22.809Z,68.60
2018-02-20T10:33:50.377Z,68.30
2018-02-20T10:36:17.913Z,67.10
2018-02-20T10:38:45.465Z,67.00
2018-02-20T10:41:13.012Z,66.30
2018-02-20T10:43:42.400Z,67.50
2018-02-20T10:46:10.718Z,68.60
2018-02-20T10:48:38.282Z,68.60
2018-02-20T10:51:05.807Z,68.80
2018-02-20T10:53:33.365Z,68.20
2018-02-20T10:56:00.917Z,68.70
2018-02-20T10:58:28.513Z,67.70
2018-02-20T11:00:56.099Z,67.60
2018-02-20T11:03:24.641Z,66.80
2018-02-20T11:05:52.187Z,66.00
2018-02-20T11:08:19.772Z,64.60
2018-02-20T11:10:47.340Z,63.70
2018-02-20T11:13:14.958Z,61.60
2018-02-20T11:15:43.288Z,61.50
2018-02-20T11:18:10.896Z,61.50
2018-02-20T11:20:38.480Z,61.00
2018-02-20T11:23:06.024Z,61.60
2018-02-20T11:25:33.571Z,62.30
2018-02-20T11:28:01.909Z,62.50
2018-02-20T11:30:29.458Z,62.50
2018-02-20T11:32:57.001Z,61.80
2018-02-20T11:35:24.566Z,61.60
2018-02-20T11:37:52.116Z,61.60
2018-02-20T11:40:19.723Z,61.90
2018-02-20T11:42:49.779Z,61.40
2018-02-20T11:45:18.339Z,61.20
2018-02-20T11:47:46.697Z,61.00
2018-02-20T11:50:15.472Z,61.00
2018-02-20T11:52:43.801Z,62.30
2018-02-20T11:55:12.126Z,62.40
2018-02-20T11:57:39.678Z,62.30
2018-02-20T12:00:07.428Z,59.80
2018-02-20T12:02:35.101Z,59.90
2018-02-20T12:05:03.570Z,59.20
2018-02-20T12:07:31.346Z,59.90
2018-02-20T12:09:58.893Z,59.20
2018-02-20T12:12:26.451Z,58.80
2018-02-20T12:14:54.011Z,60.10
2018-02-20T12:17:21.537Z,60.40
2018-02-20T12:19:49.811Z,61.20
2018-02-20T12:22:17.377Z,62.20
2018-02-20T12:24:46.653Z,62.50
2018-02-20T12:27:14.216Z,62.50
2018-02-20T12:29:41.767Z,62.70
2018-02-20T12:32:09.368Z,63.00
2018-02-20T12:34:37.684Z,64.20
2018-02-20T12:37:05.341Z,64.20
2018-02-20T12:39:33.001Z,65.10
2018-02-20T12:42:01.259Z,65.00
2018-02-20T12:44:29.052Z,65.50
2018-02-20T12:46:56.645Z,66.00
2018-02-20T12:49:24.188Z,66.80
2018-02-20T12:51:52.582Z,67.20
2018-02-20T12:54:21.104Z,67.90
2018-02-20T12:56:48.666Z,68.40
2018-02-20T12:59:17.425Z,68.40
2018-02-20T13:01:45.744Z,68.70
2018-02-20T13:04:14.319Z,68.70
2018-02-20T13:06:41.916Z,68.10
2018-02-20T13:09:09.480Z,68.40
2018-02-20T13:11:37.682Z,69.20
2018-02-20T13:14:06.004Z,70.20
2018-02-20T13:16:33.548Z,70.20
2018-02-20T13:19:01.110Z,70.10
2018-02-20T13:21:28.890Z,70.40
2018-02-20T13:23:56.430Z,70.30
2018-02-20T13:26:24.013Z,70.60
2018-02-20T13:28:51.561Z,70.80
2018-02-20T13:31:19.112Z,71.00
2018-02-20T13:33:46.697Z,71.20
2018-02-20T13:36:14.923Z,71.00
2018-02-20T13:38:43.260Z,70.80
2018-02-20T13:41:11.627Z,71.30
2018-02-20T13:43:40.468Z,71.30
2018-02-20T13:46:09.905Z,71.30
2018-02-20T13:48:37.550Z,71.10
2018-02-20T13:51:05.105Z,71.50
2018-02-20T13:53:34.760Z,71.30
2018-02-20T13:56:02.380Z,71.20
2018-02-20T13:58:30.807Z,71.60
2018-02-20T14:00:58.384Z,71.30
2018-02-20T14:03:25.960Z,71.70
2018-02-20T14:05:54.272Z,70.30
2018-02-20T14:08:21.837Z,70.20
2018-02-20T14:10:49.397Z,70.90
2018-02-20T14:13:16.957Z,71.20
2018-02-20T14:15:44.499Z,70.80
2018-02-20T14:18:12.094Z,70.10
2018-02-20T14:20:39.741Z,70.20
2018-02-20T14:23:07.294Z,69.60
2018-02-20T14:25:34.910Z,69.70
2018-02-20T14:28:02.522Z,69.30
2018-02-20T14:30:30.930Z,70.20
2018-02-20T14:32:58.488Z,70.50
2018-02-20T14:35:26.035Z,69.50
2018-02-20T14:37:53.592Z,69.20
2018-02-20T14:40:21.151Z,69.40
2018-02-20T14:42:48.701Z,68.70
2018-02-20T14:45:16.363Z,68.40
2018-02-20T14:47:43.933Z,67.70
2018-02-20T14:50:11.471Z,68.30
2018-02-20T14:52:39.030Z,69.10
2018-02-20T14:55:06.576Z,68.60
2018-02-20T14:57:34.144Z,67.80
2018-02-20T15:00:01.719Z,66.40
2018-02-20T15:02:29.256Z,64.60
2018-02-20T15:04:58.335Z,61.60
2018-02-20T15:07:27.018Z,63.90
2018-02-20T15:09:54.571Z,63.90
2018-02-20T15:12:22.131Z,63.50
2018-02-20T15:14:49.728Z,62.30
2018-02-20T15:17:17.269Z,62.70
2018-02-20T15:19:45.838Z,59.50
2018-02-20T15:22:14.478Z,57.80
2018-02-20T15:24:42.014Z,57.80
2018-02-20T15:27:09.589Z,57.90
2018-02-20T15:29:37.128Z,58.40
2018-02-20T15:32:04.672Z,58.40
2018-02-20T15:34:32.982Z,58.20
2018-02-20T15:37:00.525Z,58.30
2018-02-20T15:39:28.102Z,57.50
2018-02-20T15:41:55.652Z,57.50
2018-02-20T15:44:23.222Z,56.60
2018-02-20T15:46:51.368Z,56.90
2018-02-20T15:49:18.912Z,57.30
2018-02-20T15:51:48.356Z,58.00
2018-02-20T15:54:16.017Z,58.00
2018-02-20T15:56:43.600Z,58.60
2018-02-20T15:59:11.752Z,58.80
2018-02-20T16:01:39.293Z,59.50
2018-02-20T16:04:06.858Z,60.10
2018-02-20T16:06:34.640Z,60.60
2018-02-20T16:09:02.189Z,60.90
2018-02-20T16:11:29.723Z,61.40
2018-02-20T16:14:03.663Z,61.40
2018-02-20T16:16:31.472Z,61.40
2018-02-20T16:18:59.028Z,61.00
2018-02-20T16:21:26.575Z,61.60
2018-02-20T16:23:54.116Z,60.90
2018-02-20T16:26:21.698Z,60.60
2018-02-20T16:28:49.245Z,60.00
2018-02-20T16:31:16.811Z,60.00
2018-02-20T16:33:44.367Z,59.70
2018-02-20T16:36:11.901Z,60.30
2018-02-20T16:38:39.478Z,60.80
2018-02-20T16:41:07.020Z,60.80
2018-02-20T16:43:34.564Z,60.60
2018-02-20T16:46:02.125Z,60.60
2018-02-20T16:48:29.670Z,61.50
2018-02-20T16:50:58.078Z,61.90
2018-02-20T16:53:25.618Z,61.90
2018-02-20T16:55:53.200Z,62.80
2018-02-20T16:58:20.752Z,63.20
2018-02-20T17:00:48.308Z,63.40
2018-02-20T17:03:15.961Z,63.70
2018-02-20T17:05:43.562Z,63.70
2018-02-20T17:08:11.120Z,64.50
2018-02-20T17:10:38.712Z,64.30
2018-02-20T17:13:06.428Z,64.30
2018-02-20T17:15:34.089Z,64.40
2018-02-20T17:18:01.631Z,65.30
2018-02-20T17:20:29.641Z,65.40
2018-02-20T17:22:58.127Z,64.80
2018-02-20T17:25:25.712Z,63.50
2018-02-20T17:27:54.738Z,61.20
2018-02-20T17:30:22.291Z,61.10
2018-02-20T17:32:52.219Z,60.60
2018-02-20T17:35:20.764Z,60.00
2018-02-20T17:37:49.395Z,60.70
2018-02-20T17:40:18.576Z,61.40
2018-02-20T17:42:46.144Z,61.90
2018-02-20T17:45:15.771Z,62.30
2018-02-20T17:47:43.369Z,62.80
2018-02-20T17:50:12.630Z,63.90
2018-02-20T17:52:43.582Z,63.90
2018-02-20T17:55:11.461Z,64.00
2018-02-20T17:57:39.702Z,63.60
2018-02-20T18:00:10.803Z,63.70
2018-02-20T18:02:39.047Z,64.50
2018-02-20T18:05:07.213Z,64.90
2018-02-20T18:07:34.783Z,65.70
2018-02-20T18:10:03.643Z,65.70
2018-02-20T18:12:31.742Z,66.30
2018-02-20T18:15:02.590Z,66.50
2018-02-20T18:17:35.685Z,65.90
2018-02-20T18:20:03.623Z,64.90
2018-02-20T18:22:31.271Z,64.40
2018-02-20T18:24:58.986Z,62.00
2018-02-20T18:27:28.258Z,62.40
2018-02-20T18:29:56.739Z,62.30
2018-02-20T18:32:25.342Z,61.50
2018-02-20T18:34:53.136Z,61.60
2018-02-20T18:37:21.645Z,62.90
2018-02-20T18:39:49.494Z,62.90
2018-02-20T18:42:17.352Z,63.50
2018-02-20T18:44:45.675Z,63.60
2018-02-20T18:47:13.241Z,63.60
2018-02-20T18:49:41.560Z,63.00
2018-02-20T18:52:09.903Z,62.10
2018-02-20T18:54:38.693Z,62.00
2018-02-20T18:57:06.648Z,61.80
2018-02-20T18:59:34.984Z,61.90
2018-02-20T19:02:03.116Z,62.60
2018-02-20T19:04:32.218Z,62.20
2018-02-20T19:07:00.252Z,62.10
2018-02-20T19:09:28.708Z,63.50
2018-02-20T19:11:57.035Z,63.50
2018-02-20T19:14:24.834Z,64.00
2018-02-20T19:16:54.835Z,64.60
2018-02-20T19:19:22.425Z,64.50
2018-02-20T19:21:51.352Z,65.40
2018-02-20T19:24:19.307Z,65.40
2018-02-20T19:26:46.974Z,66.00
2018-02-20T19:29:14.553Z,66.10
2018-02-20T19:31:43.918Z,66.40
2018-02-20T19:34:11.519Z,66.60
2018-02-20T19:36:39.097Z,66.70
2018-02-20T19:39:06.684Z,67.10
2018-02-20T19:41:35.165Z,67.00
2018-02-20T19:44:03.510Z,65.50
2018-02-20T19:46:31.260Z,65.60
2018-02-20T19:48:58.971Z,66.00
2018-02-20T19:51:27.855Z,65.40
2018-02-20T19:53:56.175Z,65.10
2018-02-20T19:56:23.834Z,65.00
2018-02-20T19:58:52.872Z,64.70
2018-02-20T20:01:22.436Z,64.40
2018-02-20T20:03:57.139Z,64.40
2018-02-20T20:06:25.553Z,64.70
2018-02-20T20:08:53.127Z,64.90
2018-02-20T20:11:20.705Z,65.30
2018-02-20T20:14:00.937Z,65.80
2018-02-20T20:16:32.946Z,65.80
2018-02-20T20:19:01.482Z,65.90
2018-02-20T20:21:29.200Z,65.70
2018-02-20T20:23:56.778Z,65.90
2018-02-20T20:26:24.311Z,66.00
2018-02-20T20:28:51.905Z,66.60
2018-02-20T20:31:19.441Z,66.60
2018-02-20T20:33:47.797Z,66.60
2018-02-20T20:36:16.222Z,66.70
2018-02-20T20:38:43.882Z,66.70
2018-02-20T20:41:12.906Z,66.20
2018-02-20T20:43:40.640Z,66.40
2018-02-20T20:46:09.019Z,66.50
2018-02-20T20:48:36.590Z,67.20
2018-02-20T20:51:04.173Z,67.30
2018-02-20T20:53:31.750Z,68.00
2018-02-20T20:56:00.075Z,67.70
2018-02-20T20:58:27.656Z,67.40
2018-02-20T21:00:55.202Z,67.90
2018-02-20T21:03:22.775Z,67.80
2018-02-20T21:05:50.418Z,67.60
2018-02-20T21:08:18.082Z,67.40
2018-02-20T21:10:46.428Z,67.30
2018-02-20T21:13:14.814Z,67.70
2018-02-20T21:15:43.183Z,68.00
2018-02-20T21:18:12.622Z,68.50
2018-02-20T21:20:40.185Z,68.40
2018-02-20T21:23:07.750Z,68.50
2018-02-20T21:25:35.301Z,68.90
2018-02-20T21:28:02.875Z,68.80
2018-02-20T21:30:31.248Z,69.40
2018-02-20T21:32:59.600Z,69.80
2018-02-20T21:35:27.516Z,69.80
2018-02-20T21:37:55.098Z,70.00
2018-02-20T21:40:24.023Z,70.20
2018-02-20T21:42:51.614Z,70.10
2018-02-20T21:45:19.419Z,70.10
2018-02-20T21:47:46.992Z,70.20
2018-02-20T21:50:14.865Z,70.00
2018-02-20T21:52:42.425Z,69.80
2018-02-20T21:55:13.795Z,69.90
2018-02-20T21:57:41.398Z,69.90
2018-02-20T22:00:09.004Z,70.20
2018-02-20T22:02:36.872Z,70.40
2018-02-20T22:05:04.449Z,70.30
2018-02-20T22:07:32.061Z,70.40
2018-02-20T22:10:00.397Z,70.20
2018-02-20T22:12:28.040Z,70.20
2018-02-20T22:14:55.911Z,70.20
2018-02-20T22:17:23.475Z,70.30
2018-02-20T22:19:51.072Z,70.60
2018-02-20T22:22:19.310Z,70.50
2018-02-20T22:24:46.866Z,70.40
2018-02-20T22:27:14.429Z,70.30
2018-02-20T22:29:42.087Z,70.30
2018-02-20T22:32:09.648Z,70.40
2018-02-20T22:34:37.208Z,70.70
2018-02-20T22:37:05.296Z,71.00
2018-02-20T22:39:32.852Z,71.20
2018-02-20T22:42:00.396Z,71.50
2018-02-20T22:44:27.974Z,71.70
2018-02-20T22:46:57.751Z,72.00
2018-02-20T22:49:26.248Z,71.50
2018-02-20T22:51:53.837Z,71.50
2018-02-20T22:54:21.384Z,71.60
2018-02-20T22:56:49.008Z,72.00
2018-02-20T22:59:18.534Z,72.00
2018-02-20T23:01:46.114Z,72.10
2018-02-20T23:04:13.671Z,72.00
2018-02-20T23:06:41.244Z,72.00
2018-02-20T23:09:09.391Z,72.00
2018-02-20T23:11:47.938Z,72.20
2018-02-20T23:14:15.489Z,72.10
2018-02-20T23:16:43.040Z,72.20
2018-02-20T23:19:10.611Z,72.50
2018-02-20T23:21:38.183Z,72.60
2018-02-20T23:24:05.740Z,72.60
2018-02-20T23:26:34.086Z,72.70
2018-02-20T23:29:01.668Z,72.90
2018-02-20T23:31:29.223Z,73.20
2018-02-20T23:33:56.993Z,73.10
2018-02-20T23:36:24.560Z,73.50
2018-02-20T23:38:52.123Z,73.70
2018-02-20T23:41:19.694Z,73.60
2018-02-20T23:43:47.278Z,73.50
2018-02-20T23:46:15.584Z,73.60
2018-02-20T23:48:43.236Z,73.50
2018-02-20T23:51:16.519Z,73.60
2018-02-20T23:53:44.075Z,73.90
2018-02-20T23:56:12.396Z,74.00
2018-02-20T23:58:39.945Z,74.00
